^^
Station Historical Data
 
Daily Summary for September 22, 2018 Units:  English    Metric   Both
« Previous Day
Next Day »
Daily Weekly Monthly Yearly Custom
  Current: High: Low: Average:
Temperature: 57.7 °F TemperatureF °F 41.9 °F 59.4 °F
Dew Point: 24.8 °F DewpointF °F 14.9 °F 26.4 °F
Humidity: 28 % Humidity % 11 % 34 %
Wind Speed: 11 mph WindSpeedMPH mph 0 mph 7.2 mph
Wind Gust: 11 mph WindSpeedGustMPH mph - -
Wind:SW - - SE
Pressure: 30.00 in PressureIn in 29.98 in -
Precipitation: 0 in      
Historical Graphs
 
 
Tabular Data for September 22, 2018
Time Temperature Dew Point Pressure Wind Wind Speed Wind Gust Humidity Rainfall Rate (Hourly)
TemperatureF °F DewpointF °F PressureIn in Calm     Humidity % HourlyPrecipIn in
00:04 46.2 °F 39 °F 30.18 in SSW 8.1 mph 12 mph 76 % 0 in
00:09 45.9 °F 39 °F 30.18 in SW 8.1 mph 9 mph 77 % 0 in
00:14 46 °F 39.2 °F 30.18 in WSW 4.9 mph 11 mph 77 % 0 in
00:19 47.1 °F 39.2 °F 30.18 in WSW 6 mph 8 mph 74 % 0 in
00:24 48.6 °F 39.6 °F 30.18 in SW 6.9 mph 7 mph 71 % 0 in
00:29 48.9 °F 39.6 °F 30.18 in SW 8.1 mph 8 mph 70 % 0 in
00:34 48.4 °F 39.4 °F 30.18 in SW 4 mph 6 mph 71 % 0 in
00:39 49.1 °F 39.4 °F 30.18 in SSW 4.9 mph 7 mph 69 % 0 in
00:44 49.5 °F 38.7 °F 30.18 in SSW 8.1 mph 8 mph 66 % 0 in
00:49 49.5 °F 38.1 °F 30.18 in SW 6 mph 8 mph 65 % 0 in
00:54 49.3 °F 37.9 °F 30.18 in SSW 6.9 mph 9 mph 65 % 0 in
00:59 48.9 °F 37.8 °F 30.18 in South 6.9 mph 9 mph 65 % 0 in
01:04 48.4 °F 37.2 °F 30.18 in South 8.9 mph 10 mph 65 % 0 in
01:09 48 °F 37.2 °F 30.17 in SW 8.1 mph 11 mph 66 % 0 in
01:14 46.9 °F 37.2 °F 30.17 in SSW 6.9 mph 12 mph 69 % 0 in
01:19 46.4 °F 37.6 °F 30.18 in SE 8.1 mph 14 mph 71 % 0 in
01:24 46 °F 37.6 °F 30.18 in West 6.9 mph 9 mph 72 % 0 in
01:29 45.9 °F 36.3 °F 30.18 in SW 6.9 mph 11 mph 69 % 0 in
01:34 47.1 °F 36 °F 30.18 in WSW 4.9 mph 7 mph 65 % 0 in
01:39 47.8 °F 35.4 °F 30.19 in WSW 2 mph 4 mph 62 % 0 in
01:44 48.6 °F 35.2 °F 30.18 in SW 4 mph 7 mph 60 % 0 in
01:49 49.8 °F 34.3 °F 30.19 in SSW 4.9 mph 6 mph 55 % 0 in
01:54 49.6 °F 34.5 °F 30.18 in Calm   1 mph 56 % 0 in
01:59 48.2 °F 34.5 °F 30.19 in South 6.9 mph 9 mph 59 % 0 in
02:04 47.3 °F 34.5 °F 30.18 in South 8.1 mph 10 mph 61 % 0 in
02:09 45.9 °F 34 °F 30.18 in SSW 6.9 mph 14 mph 63 % 0 in
02:14 45.7 °F 33.8 °F 30.18 in SSW 6.9 mph 9 mph 63 % 0 in
02:19 46 °F 33.8 °F 30.18 in South 8.9 mph 13 mph 62 % 0 in
02:24 45.7 °F 34.2 °F 30.18 in SE 6.9 mph 11 mph 64 % 0 in
02:29 45.3 °F 34.7 °F 30.18 in SSE 10.1 mph 13 mph 66 % 0 in
02:34 44.8 °F 34.5 °F 30.18 in ESE 6.9 mph 12 mph 67 % 0 in
02:39 44.8 °F 34.2 °F 30.18 in SSW 4.9 mph 12 mph 66 % 0 in
02:44 44.1 °F 33.1 °F 30.18 in SW 13 mph 13 mph 65 % 0 in
02:49 45.3 °F 32.2 °F 30.18 in SW 8.9 mph 13 mph 60 % 0 in
02:54 45 °F 32.4 °F 30.18 in SW 8.1 mph 12 mph 61 % 0 in
02:59 44.2 °F 32.4 °F 30.18 in SW 10.1 mph 13 mph 63 % 0 in
03:04 44.4 °F 31.8 °F 30.18 in SW 8.9 mph 11 mph 61 % 0 in
03:09 43.9 °F 32.2 °F 30.18 in SW 8.1 mph 15 mph 63 % 0 in
03:14 43.3 °F 31.3 °F 30.18 in SSW 10.1 mph 12 mph 62 % 0 in
03:19 43.3 °F 31.6 °F 30.18 in SW 6.9 mph 14 mph 63 % 0 in
03:24 43 °F 30.9 °F 30.18 in West 10.1 mph 13 mph 62 % 0 in
03:29 44.4 °F 30.2 °F 30.18 in SW 6.9 mph 14 mph 57 % 0 in
03:34 44.2 °F 30 °F 30.18 in WSW 4.9 mph 7 mph 57 % 0 in
03:39 44.2 °F 29.5 °F 30.18 in SSE 8.1 mph 12 mph 56 % 0 in
03:44 44.6 °F 28.6 °F 30.18 in SW 6.9 mph 11 mph 53 % 0 in
03:49 45.1 °F 28.9 °F 30.18 in SSW 6 mph 10 mph 53 % 0 in
03:54 44.6 °F 28.6 °F 30.18 in South 6.9 mph 11 mph 53 % 0 in
03:59 45.1 °F 28 °F 30.18 in ESE 11 mph 11 mph 51 % 0 in
04:04 44.2 °F 28.6 °F 30.18 in SW 6 mph 16 mph 54 % 0 in
04:09 44.4 °F 28.4 °F 30.18 in South 8.1 mph 12 mph 53 % 0 in
04:14 44.1 °F 28.9 °F 30.18 in SW 11 mph 11 mph 55 % 0 in
04:19 43.3 °F 28.8 °F 30.18 in SW 8.1 mph 13 mph 56 % 0 in
04:24 43.3 °F 28.2 °F 30.18 in SW 8.9 mph 11 mph 55 % 0 in
04:29 44.1 °F 28 °F 30.18 in SSW 2.9 mph 12 mph 53 % 0 in
04:34 43.7 °F 28.6 °F 30.17 in SW 8.9 mph 11 mph 55 % 0 in
04:39 43 °F 28.4 °F 30.17 in SSW 6 mph 12 mph 56 % 0 in
04:44 43.5 °F 28.4 °F 30.18 in SW 2.9 mph 6 mph 55 % 0 in
04:49 43.5 °F 27.1 °F 30.18 in ESE 6 mph 12 mph 52 % 0 in
04:54 43 °F 27.5 °F 30.18 in WSW 8.1 mph 11 mph 54 % 0 in
04:59 43 °F 27 °F 30.18 in SW 8.9 mph 11 mph 53 % 0 in
05:04 42.8 °F 27.3 °F 30.18 in SSW 6.9 mph 11 mph 54 % 0 in
05:09 43.2 °F 26.8 °F 30.18 in SW 6.9 mph 8 mph 52 % 0 in
05:14 43.5 °F 26.1 °F 30.18 in South 6.9 mph 10 mph 50 % 0 in
05:19 43.5 °F 26.1 °F 30.18 in SW 6.9 mph 9 mph 50 % 0 in
05:24 44.1 °F 25.7 °F 30.18 in SW 8.9 mph 9 mph 48 % 0 in
05:29 44.1 °F 25.7 °F 30.18 in South 6.9 mph 11 mph 48 % 0 in
05:34 44.1 °F 25.7 °F 30.18 in South 4 mph 6 mph 48 % 0 in
05:39 43.9 °F 25.5 °F 30.18 in SSE 6 mph 9 mph 48 % 0 in
05:44 44.2 °F 25.7 °F 30.18 in SSE 6.9 mph 7 mph 48 % 0 in
05:49 44.1 °F 25.7 °F 30.18 in South 6.9 mph 9 mph 48 % 0 in
05:54 43.5 °F 25.2 °F 30.18 in South 6 mph 8 mph 48 % 0 in
05:59 43.9 °F 25 °F 30.18 in SSE 6.9 mph 8 mph 47 % 0 in
06:04 43.9 °F 24.4 °F 30.18 in SSE 2 mph 8 mph 46 % 0 in
06:09 43.5 °F 24.6 °F 30.18 in SW 6 mph 8 mph 47 % 0 in
06:14 43.5 °F 25.2 °F 30.18 in South 8.1 mph 13 mph 48 % 0 in
06:19 43.3 °F 24.4 °F 30.18 in South 8.1 mph 10 mph 47 % 0 in
06:24 43.9 °F 24.4 °F 30.18 in South 10.1 mph 10 mph 46 % 0 in
06:29 44.1 °F 24.6 °F 30.18 in SSW 6 mph 10 mph 46 % 0 in
06:34 43.7 °F 24.8 °F 30.18 in SSE 11 mph 17 mph 47 % 0 in
06:39 43.9 °F 24.4 °F 30.18 in South 8.9 mph 13 mph 46 % 0 in
06:44 43 °F 25.2 °F 30.18 in SSW 10.1 mph 14 mph 49 % 0 in
06:49 42.3 °F 25 °F 30.18 in South 6 mph 11 mph 50 % 0 in
06:54 42.3 °F 25 °F 30.18 in SW 12.1 mph 12 mph 50 % 0 in
06:59 41.9 °F 25.2 °F 30.18 in SSE 8.1 mph 14 mph 51 % 0 in
07:04 42.1 °F 25.3 °F 30.18 in WSW 10.1 mph 11 mph 51 % 0 in
07:09 42.4 °F 24.6 °F 30.18 in SW 6.9 mph 13 mph 49 % 0 in
07:14 42.6 °F 24.8 °F 30.18 in South 8.9 mph 11 mph 49 % 0 in
07:19 43.2 °F 24.8 °F 30.18 in SSW 8.9 mph 10 mph 48 % 0 in
07:24 43.2 °F 25.3 °F 30.18 in SW 6 mph 12 mph 49 % 0 in
07:29 44.2 °F 24.8 °F 30.18 in SSE 8.1 mph 11 mph 46 % 0 in
07:34 44.2 °F 24.8 °F 30.18 in SW 6 mph 10 mph 46 % 0 in
07:39 45.3 °F 24.6 °F 30.18 in West 8.9 mph 11 mph 44 % 0 in
07:44 45.1 °F 25 °F 30.18 in SW 4 mph 8 mph 45 % 0 in
07:49 45.7 °F 25 °F 30.18 in East 4.9 mph 10 mph 44 % 0 in
07:54 46 °F 25.3 °F 30.18 in South 4 mph 9 mph 44 % 0 in
07:59 47.3 °F 27 °F 30.19 in NE 2 mph 2 mph 45 % 0 in
08:04 47.1 °F 25.7 °F 30.18 in SW 4 mph 12 mph 43 % 0 in
08:09 46.9 °F 26.2 °F 30.19 in SSW 6 mph 7 mph 44 % 0 in
08:14 48 °F 26.1 °F 30.19 in SW 0.9 mph 5 mph 42 % 0 in
08:19 50 °F 27.1 °F 30.19 in SSW 0.9 mph 3 mph 41 % 0 in
08:24 50.7 °F 26.6 °F 30.19 in Calm   3 mph 39 % 0 in
08:29 51.4 °F 27.3 °F 30.19 in SSE 2 mph 5 mph 39 % 0 in
08:34 51.8 °F 27 °F 30.19 in SW 0.9 mph 8 mph 38 % 0 in
08:39 52.9 °F 27.3 °F 30.20 in Calm     37 % 0 in
08:44 54.1 °F 27.7 °F 30.19 in Calm     36 % 0 in
08:49 55.9 °F 28 °F 30.19 in Calm   1 mph 34 % 0 in
08:54 57.4 °F 31.3 °F 30.19 in Calm   2 mph 37 % 0 in
08:59 58.3 °F 29.3 °F 30.19 in Calm   2 mph 33 % 0 in
09:04 59.5 °F 29.7 °F 30.19 in Calm     32 % 0 in
09:09 60.6 °F 34.2 °F 30.19 in Calm   3 mph 37 % 0 in
09:14 61.3 °F 32 °F 30.19 in Calm     33 % 0 in
09:19 62.2 °F 34.2 °F 30.18 in ENE 4 mph 4 mph 35 % 0 in
09:24 63 °F 34.2 °F 30.18 in ENE 0.9 mph 4 mph 34 % 0 in
09:29 64 °F 32.7 °F 30.18 in ENE 0.9 mph 2 mph 31 % 0 in
09:34 65.1 °F 32 °F 30.17 in ENE 4.9 mph 6 mph 29 % 0 in
09:39 66.4 °F 29.5 °F 30.18 in ENE 2 mph 5 mph 25 % 0 in
09:44 67.5 °F 27.3 °F 30.17 in ENE 2 mph 7 mph 22 % 0 in
09:49 67.5 °F 29.5 °F 30.17 in ENE 6 mph 7 mph 24 % 0 in
09:54 68 °F 24.3 °F 30.17 in ENE 2.9 mph 4 mph 19 % 0 in
09:59 69.1 °F 25.2 °F 30.17 in ENE 2 mph 5 mph 19 % 0 in
10:04 70 °F 24.4 °F 30.16 in ENE 4.9 mph 6 mph 18 % 0 in
10:09 69.6 °F 22.8 °F 30.16 in ENE 4 mph 8 mph 17 % 0 in
10:14 70 °F 24.4 °F 30.16 in NE 6 mph 6 mph 18 % 0 in
10:19 70 °F 23.2 °F 30.16 in East 8.9 mph 9 mph 17 % 0 in
10:24 69.8 °F 20.1 °F 30.16 in ENE 4 mph 9 mph 15 % 0 in
10:29 70.2 °F 21.9 °F 30.16 in ENE 8.1 mph 8 mph 16 % 0 in
10:34 70.7 °F 22.3 °F 30.16 in East 4.9 mph 13 mph 16 % 0 in
10:39 71.6 °F 21.6 °F 30.16 in ENE 8.9 mph 10 mph 15 % 0 in
10:44 72.1 °F 21.9 °F 30.16 in NE 8.1 mph 10 mph 15 % 0 in
10:49 71.1 °F 22.6 °F 30.16 in ENE 4 mph 9 mph 16 % 0 in
10:54 72.5 °F 23.7 °F 30.15 in NNE 2.9 mph 5 mph 16 % 0 in
10:59 73.6 °F 19.8 °F 30.15 in West 4.9 mph 13 mph 13 % 0 in
11:04 72.9 °F 17.2 °F 30.15 in West 4 mph 10 mph 12 % 0 in
11:09 73.2 °F 17.6 °F 30.15 in WNW 8.9 mph 15 mph 12 % 0 in
11:14 72.7 °F 15.1 °F 30.14 in North 16.1 mph 16 mph 11 % 0 in
11:19 72.3 °F 14.9 °F 30.14 in WNW 0.9 mph 9 mph 11 % 0 in
11:24 72.3 °F 16.9 °F 30.14 in NW 2.9 mph 8 mph 12 % 0 in
11:29 73 °F 17.4 °F 30.14 in NE 4.9 mph 8 mph 12 % 0 in
11:34 73.6 °F 23 °F 30.13 in NE 6 mph 15 mph 15 % 0 in
11:39 73.4 °F 17.8 °F 30.13 in NE 2.9 mph 7 mph 12 % 0 in
11:44 73.6 °F 15.8 °F 30.14 in Calm   8 mph 11 % 0 in
11:49 73.8 °F 24.8 °F 30.13 in ENE 8.9 mph 10 mph 16 % 0 in
11:54 72.7 °F 25.3 °F 30.12 in ENE 11 mph 19 mph 17 % 0 in
11:59 71.8 °F 24.6 °F 30.12 in ENE 6.9 mph 15 mph 17 % 0 in
12:04 71.8 °F 24.6 °F 30.11 in ENE 8.1 mph 13 mph 17 % 0 in
12:09 72.1 °F 25 °F 30.11 in NE 8.1 mph 18 mph 17 % 0 in
12:14 71.8 °F 24.6 °F 30.11 in ENE 16.1 mph 19 mph 17 % 0 in
12:19 72.5 °F 25.2 °F 30.11 in East 14.1 mph 19 mph 17 % 0 in
12:24 72.5 °F 25.2 °F 30.10 in ENE 23 mph 23 mph 17 % 0 in
12:29 71.8 °F 24.6 °F 30.10 in East 16.1 mph 20 mph 17 % 0 in
12:34 72.1 °F 25 °F 30.09 in ENE 11 mph 19 mph 17 % 0 in
12:39 72.7 °F 25.3 °F 30.09 in NNW 4.9 mph 15 mph 17 % 0 in
12:44 73.2 °F 24.3 °F 30.09 in East 14.1 mph 18 mph 16 % 0 in
12:49 73 °F 24.3 °F 30.09 in SE 6 mph 20 mph 16 % 0 in
12:54 72.7 °F 25.3 °F 30.08 in ENE 17.9 mph 20 mph 17 % 0 in
12:59 72.7 °F 25.3 °F 30.08 in ENE 6.9 mph 14 mph 17 % 0 in
13:04 72.7 °F 25.3 °F 30.08 in ENE 17.9 mph 18 mph 17 % 0 in
13:09 72.3 °F 25 °F 30.08 in ENE 8.9 mph 17 mph 17 % 0 in
13:14 72.9 °F 25.5 °F 30.07 in NE 11 mph 19 mph 17 % 0 in
13:19 73 °F 25.7 °F 30.07 in ENE 15 mph 16 mph 17 % 0 in
13:24 72.9 °F 24.1 °F 30.07 in NE 10.1 mph 14 mph 16 % 0 in
13:29 72.7 °F 23.9 °F 30.06 in ENE 17 mph 26 mph 16 % 0 in
13:34 73.2 °F 24.3 °F 30.06 in NE 14.1 mph 19 mph 16 % 0 in
13:39 72.5 °F 23.7 °F 30.06 in ENE 15 mph 21 mph 16 % 0 in
13:44 72.9 °F 24.1 °F 30.06 in ENE 13 mph 21 mph 16 % 0 in
13:49 72.7 °F 23.9 °F 30.05 in ENE 6 mph 13 mph 16 % 0 in
13:54 72.9 °F 24.1 °F 30.05 in ENE 15 mph 16 mph 16 % 0 in
13:59 73.4 °F 24.4 °F 30.04 in ENE 16.1 mph 20 mph 16 % 0 in
14:04 73.2 °F 22.8 °F 30.04 in ENE 8.1 mph 18 mph 15 % 0 in
14:09 73.6 °F 23 °F 30.04 in ENE 8.9 mph 18 mph 15 % 0 in
14:14 73.4 °F 24.4 °F 30.04 in ENE 11 mph 23 mph 16 % 0 in
14:19 73.6 °F 23 °F 30.03 in NE 8.9 mph 18 mph 15 % 0 in
14:24 73 °F 24.3 °F 30.03 in NE 13 mph 15 mph 16 % 0 in
14:29 73 °F 24.3 °F 30.03 in ENE 17 mph 18 mph 16 % 0 in
14:34 72.9 °F 24.1 °F 30.02 in ENE 13 mph 17 mph 16 % 0 in
14:39 72.7 °F 23.9 °F 30.02 in ENE 12.1 mph 19 mph 16 % 0 in
14:44 72.9 °F 24.1 °F 30.02 in East 8.1 mph 14 mph 16 % 0 in
14:49 73.6 °F 24.6 °F 30.01 in East 11 mph 14 mph 16 % 0 in
14:54 73 °F 24.3 °F 30.01 in ENE 10.1 mph 17 mph 16 % 0 in
14:59 73.6 °F 24.6 °F 30.01 in NE 8.1 mph 12 mph 16 % 0 in
15:04 73.8 °F 24.8 °F 30.01 in ENE 13 mph 19 mph 16 % 0 in
15:09 73.2 °F 24.3 °F 30.01 in ENE 11 mph 17 mph 16 % 0 in
15:14 73 °F 24.3 °F 30.01 in ENE 12.1 mph 19 mph 16 % 0 in
15:19 72.7 °F 23.9 °F 30.01 in ENE 6 mph 12 mph 16 % 0 in
15:24 73.4 °F 23 °F 30.01 in NE 15 mph 17 mph 15 % 0 in
15:29 73.6 °F 23 °F 30.01 in ENE 13 mph 21 mph 15 % 0 in
15:34 73.2 °F 22.8 °F 30.01 in ENE 11 mph 20 mph 15 % 0 in
15:39 73.6 °F 23 °F 30.00 in East 16.1 mph 16 mph 15 % 0 in
15:44 73.2 °F 22.8 °F 30.01 in ENE 13 mph 19 mph 15 % 0 in
15:49 73 °F 22.6 °F 30.00 in ENE 2.9 mph 16 mph 15 % 0 in
15:54 73.2 °F 22.8 °F 30.00 in ENE 8.9 mph 13 mph 15 % 0 in
15:59 73 °F 22.6 °F 29.99 in ENE 13 mph 23 mph 15 % 0 in
16:04 73.2 °F 22.8 °F 29.99 in ENE 8.9 mph 16 mph 15 % 0 in
16:09 73.2 °F 22.8 °F 29.99 in ENE 10.1 mph 13 mph 15 % 0 in
16:14 73.2 °F 22.8 °F 29.99 in ENE 11 mph 20 mph 15 % 0 in
16:19 73.6 °F 23 °F 29.99 in ENE 10.1 mph 10 mph 15 % 0 in
16:24 73.6 °F 23 °F 29.98 in ENE 4.9 mph 12 mph 15 % 0 in
16:29 73.2 °F 22.8 °F 29.98 in ENE 8.1 mph 11 mph 15 % 0 in
16:34 73.2 °F 22.8 °F 29.98 in ENE 13 mph 17 mph 15 % 0 in
16:39 73.2 °F 22.8 °F 29.98 in NE 15 mph 20 mph 15 % 0 in
16:44 73 °F 22.6 °F 29.98 in NE 13 mph 14 mph 15 % 0 in
16:49 72.9 °F 22.5 °F 29.98 in NE 11 mph 21 mph 15 % 0 in
16:54 73 °F 22.6 °F 29.98 in NNE 4.9 mph 17 mph 15 % 0 in
16:59 73.4 °F 23 °F 29.98 in North 4 mph 13 mph 15 % 0 in
17:04 73.2 °F 22.8 °F 29.98 in ENE 6.9 mph 10 mph 15 % 0 in
17:09 72.9 °F 22.5 °F 29.98 in East 8.9 mph 12 mph 15 % 0 in
17:14 72.9 °F 22.5 °F 29.98 in ENE 8.9 mph 13 mph 15 % 0 in
17:19 72.9 °F 22.5 °F 29.98 in NE 6 mph 8 mph 15 % 0 in
17:24 72.7 °F 22.3 °F 29.98 in NE 8.9 mph 11 mph 15 % 0 in
17:29 72.7 °F 22.3 °F 29.98 in ENE 4.9 mph 11 mph 15 % 0 in
17:34 72.7 °F 22.3 °F 29.98 in NE 10.1 mph 15 mph 15 % 0 in
17:39 72.5 °F 22.3 °F 29.98 in NE 12.1 mph 13 mph 15 % 0 in
17:44 72.3 °F 22.1 °F 29.98 in ENE 8.9 mph 13 mph 15 % 0 in
17:49 72.1 °F 21.9 °F 29.98 in ENE 4 mph 8 mph 15 % 0 in
17:54 72.3 °F 22.1 °F 29.98 in ENE 4.9 mph 6 mph 15 % 0 in
17:59 72.1 °F 21.9 °F 29.98 in NE 2.9 mph 7 mph 15 % 0 in
18:04 72.1 °F 21.9 °F 29.98 in ENE 4 mph 7 mph 15 % 0 in
18:09 72 °F 21.7 °F 29.98 in ENE 4.9 mph 5 mph 15 % 0 in
18:14 72 °F 21.7 °F 29.98 in ENE 2.9 mph 6 mph 15 % 0 in
18:19 71.8 °F 23.2 °F 29.99 in ENE 2.9 mph 5 mph 16 % 0 in
18:24 71.8 °F 21.6 °F 29.99 in ENE 2.9 mph 4 mph 15 % 0 in
18:29 71.8 °F 23.2 °F 29.99 in ENE 2 mph 5 mph 16 % 0 in
18:34 71.8 °F 23.2 °F 29.99 in ENE 4 mph 6 mph 16 % 0 in
18:39 71.2 °F 22.8 °F 29.99 in East 2.9 mph 5 mph 16 % 0 in
18:44 70.9 °F 22.5 °F 29.99 in ENE 2 mph 3 mph 16 % 0 in
18:49 70.3 °F 22.1 °F 29.99 in ENE 0.9 mph 2 mph 16 % 0 in
18:54 70.2 °F 21.9 °F 29.99 in Calm     16 % 0 in
18:59 69.3 °F 22.6 °F 29.99 in ENE 2.9 mph 4 mph 17 % 0 in
19:04 68.2 °F 21.7 °F 29.99 in WSW 2.9 mph 4 mph 17 % 0 in
19:09 67.6 °F 22.6 °F 29.99 in West 2 mph 2 mph 18 % 0 in
19:14 67.5 °F 22.5 °F 29.99 in South 2 mph 2 mph 18 % 0 in
19:19 66.4 °F 24.1 °F 29.99 in South 6.9 mph 11 mph 20 % 0 in
19:24 64.9 °F 24.1 °F 29.99 in SSW 6 mph 10 mph 21 % 0 in
19:29 64.4 °F 24.8 °F 29.99 in ESE 6.9 mph 8 mph 22 % 0 in
19:34 63 °F 25.5 °F 29.99 in SE 4.9 mph 10 mph 24 % 0 in
19:39 62.1 °F 25.9 °F 29.99 in SSW 8.1 mph 10 mph 25 % 0 in
19:44 61.3 °F 24.3 °F 29.99 in SW 10.1 mph 11 mph 24 % 0 in
19:49 61.2 °F 24.1 °F 29.99 in SSW 6.9 mph 9 mph 24 % 0 in
19:54 61.5 °F 24.4 °F 29.99 in South 6 mph 8 mph 24 % 0 in
19:59 61.2 °F 24.1 °F 30.00 in SW 6.9 mph 11 mph 24 % 0 in
20:04 60.8 °F 24.8 °F 29.99 in SW 8.1 mph 9 mph 25 % 0 in
20:09 59.5 °F 25.5 °F 29.99 in SSW 6.9 mph 12 mph 27 % 0 in
20:14 59.2 °F 25.2 °F 30.00 in SSW 4.9 mph 9 mph 27 % 0 in
20:19 59 °F 25 °F 30.00 in SSE 8.1 mph 13 mph 27 % 0 in
20:24 58.6 °F 25.7 °F 30.00 in West 8.9 mph 11 mph 28 % 0 in
20:29 58.1 °F 25.2 °F 30.00 in SSW 10.1 mph 11 mph 28 % 0 in
20:34 57.7 °F 24.8 °F 30.00 in SW 11 mph 11 mph 28 % 0 in
Evergreen Colorado, USA
Compliments of Weather Underground - 3.25 mb